Terminal Aerodrome Forecast
Issued by NWS

Home | Current Version | Previous Version | Graphics & Text | Print | Product List | Glossary On
Versions: 1 2 3 4 5 6 7 8 9 10 11 12 13 14 15 16 17 18 19 20
086
FTUS43 KIWX 031259 AAB
TAFSBN
TAF AMD
KSBN 031259Z 0313/0412 23013G20KT P6SM SCT012
     FM031500 23018G26KT P6SM BKN040
     FM032100 26016G24KT 5SM -SHSN BKN015
     FM040300 28011KT 4SM -SHSN BKN015=

USA.gov is the U.S. government's official web portal to all federal, state and local government web resources and services.